Terminal Aerodrome Forecast
Issued by NWS

Home | Current Version | Previous Version | Text Only | Print | Product List | Glossary On
Versions: 1 2 3 4 5 6 7 8 9 10 11 12 13 14 15 16 17 18 19 20
457
FTUS43 KGRR 040540
TAFJXN
TAF
KJXN 040540Z 0406/0506 20007KT P6SM VCSH OVC050
     FM040800 VRB04KT P6SM -RA OVC035
     FM040900 22008KT P6SM -RA OVC025
     FM041000 22007KT 6SM -RA OVC015
     FM041100 23006KT 4SM -RA OVC009
     FM041800 36012G18KT 5SM -RA BR OVC007
     FM050000 01016G22KT 2SM -DZ BR OVC004=

USA.gov is the U.S. government's official web portal to all federal, state and local government web resources and services.